Terminal Aerodrome Forecast
Issued by NWS

Home | Current Version | Previous Version | Graphics & Text | Print | Product List | Glossary On
Versions: 1 2 3 4 5 6 7 8 9 10 11 12 13 14 15 16 17 18 19 20 21
000
FTUS43 KICT 151300 AAB
TAFRSL
TAF AMD
KRSL 151334Z 1514/1612 36013KT 3SM BR SCT006 BKN010
      TEMPO 1514/1517 1/2SM FG BKN002
     FM151900 04014KT P6SM BKN035
     FM160400 08006KT P6SM SCT020 BKN080=

USA.gov is the U.S. government's official web portal to all federal, state and local government web resources and services.